createdAt,value
2018-07-14T00:00:12.181Z,22.60
2018-07-14T00:02:41.083Z,22.70
2018-07-14T00:05:09.974Z,22.70
2018-07-14T00:07:38.774Z,22.60
2018-07-14T00:10:07.797Z,22.50
2018-07-14T00:12:36.446Z,22.40
2018-07-14T00:15:05.590Z,22.40
2018-07-14T00:17:34.405Z,22.30
2018-07-14T00:20:03.262Z,22.40
2018-07-14T00:22:32.102Z,22.30
2018-07-14T00:25:00.954Z,22.20
2018-07-14T00:27:30.062Z,22.00
2018-07-14T00:29:58.855Z,22.00
2018-07-14T00:32:27.806Z,22.00
2018-07-14T00:34:56.627Z,22.10
2018-07-14T00:37:25.434Z,22.20
2018-07-14T00:39:54.219Z,22.10
2018-07-14T00:42:23.002Z,22.00
2018-07-14T00:44:51.864Z,22.00
2018-07-14T00:47:20.742Z,22.00
2018-07-14T00:49:50.847Z,22.00
2018-07-14T00:52:19.565Z,22.00
2018-07-14T00:54:48.393Z,22.00
2018-07-14T00:57:17.262Z,21.90
2018-07-14T00:59:46.026Z,21.80
2018-07-14T01:02:14.842Z,21.80
2018-07-14T01:04:43.642Z,21.80
2018-07-14T01:07:12.361Z,21.90
2018-07-14T01:09:41.290Z,22.00
2018-07-14T01:12:10.038Z,21.90
2018-07-14T01:14:38.930Z,21.90
2018-07-14T01:17:07.764Z,21.80
2018-07-14T01:19:36.554Z,21.80
2018-07-14T01:22:05.545Z,21.80
2018-07-14T01:24:34.431Z,21.80
2018-07-14T01:27:03.352Z,21.80
2018-07-14T01:29:32.150Z,21.80
2018-07-14T01:32:00.954Z,21.70
2018-07-14T01:34:29.721Z,21.70
2018-07-14T01:36:58.540Z,21.70
2018-07-14T01:39:27.269Z,21.70
2018-07-14T01:41:56.195Z,21.70
2018-07-14T01:44:25.043Z,21.70
2018-07-14T01:46:53.818Z,21.70
2018-07-14T01:49:22.669Z,21.60
2018-07-14T01:51:51.548Z,21.50
2018-07-14T01:54:20.352Z,21.50
2018-07-14T01:56:49.057Z,21.40
2018-07-14T01:59:17.848Z,21.40
2018-07-14T02:01:46.677Z,21.30
2018-07-14T02:04:15.569Z,21.30
2018-07-14T02:06:44.427Z,21.10
2018-07-14T02:09:13.212Z,21.10
2018-07-14T02:11:42.104Z,20.90
2018-07-14T02:14:11.054Z,20.90
2018-07-14T02:16:39.929Z,20.90
2018-07-14T02:19:08.776Z,20.90
2018-07-14T02:21:37.570Z,20.90
2018-07-14T02:24:06.336Z,20.80
2018-07-14T02:26:35.146Z,20.70
2018-07-14T02:29:03.859Z,20.60
2018-07-14T02:31:32.677Z,20.60
2018-07-14T02:34:01.490Z,20.60
2018-07-14T02:36:30.218Z,20.50
2018-07-14T02:38:59.024Z,20.50
2018-07-14T02:41:27.777Z,20.50
2018-07-14T02:43:56.649Z,20.60
2018-07-14T02:46:26.322Z,20.70
2018-07-14T02:48:55.028Z,20.70
2018-07-14T02:51:23.849Z,20.70
2018-07-14T02:53:52.803Z,20.70
2018-07-14T02:56:21.677Z,20.60
2018-07-14T02:58:50.546Z,20.50
2018-07-14T03:01:19.438Z,20.50
2018-07-14T03:03:48.313Z,20.60
2018-07-14T03:06:17.035Z,20.60
2018-07-14T03:08:45.889Z,20.60
2018-07-14T03:11:14.750Z,20.50
2018-07-14T03:13:43.650Z,20.50
2018-07-14T03:16:12.457Z,20.50
2018-07-14T03:18:43.745Z,20.50
2018-07-14T03:21:12.575Z,20.50
2018-07-14T03:23:41.423Z,20.60
2018-07-14T03:26:10.335Z,20.60
2018-07-14T03:28:39.210Z,20.60
2018-07-14T03:31:08.055Z,20.50
2018-07-14T03:33:36.795Z,20.50
2018-07-14T03:36:05.611Z,20.50
2018-07-14T03:38:34.373Z,20.40
2018-07-14T03:41:03.170Z,20.40
2018-07-14T03:43:31.958Z,20.40
2018-07-14T03:46:00.694Z,20.40
2018-07-14T03:48:29.785Z,20.40
2018-07-14T03:50:58.631Z,20.40
2018-07-14T03:53:27.464Z,20.40
2018-07-14T03:55:56.265Z,20.30
2018-07-14T03:58:26.067Z,20.40
2018-07-14T04:00:54.921Z,20.40
2018-07-14T04:03:23.746Z,20.40
2018-07-14T04:05:52.548Z,20.40
2018-07-14T04:08:21.315Z,20.40
2018-07-14T04:10:50.326Z,20.40
2018-07-14T04:13:19.141Z,20.40
2018-07-14T04:15:47.925Z,20.50
2018-07-14T04:18:18.623Z,20.50
2018-07-14T04:20:47.515Z,20.50
2018-07-14T04:23:16.189Z,20.50
2018-07-14T04:25:45.071Z,20.50
2018-07-14T04:28:13.810Z,20.50
2018-07-14T04:30:42.546Z,20.60
2018-07-14T04:33:11.415Z,20.60
2018-07-14T04:35:40.232Z,20.60
2018-07-14T04:38:09.003Z,20.70
2018-07-14T04:40:37.887Z,20.70
2018-07-14T04:43:06.800Z,20.70
2018-07-14T04:45:35.772Z,20.80
2018-07-14T04:48:04.518Z,20.90
2018-07-14T04:50:33.411Z,20.90
2018-07-14T04:53:03.242Z,21.00
2018-07-14T04:55:32.039Z,21.10
2018-07-14T04:58:01.675Z,21.20
2018-07-14T05:00:30.515Z,21.30
2018-07-14T05:02:59.314Z,21.40
2018-07-14T05:05:28.154Z,21.40
2018-07-14T05:07:56.908Z,21.50
2018-07-14T05:10:25.682Z,21.50
2018-07-14T05:12:54.517Z,21.40
2018-07-14T05:15:23.413Z,21.30
2018-07-14T05:17:52.189Z,21.20
2018-07-14T05:20:21.017Z,21.20
2018-07-14T05:22:49.878Z,21.10
2018-07-14T05:25:18.667Z,21.10
2018-07-14T05:27:47.523Z,21.10
2018-07-14T05:30:16.385Z,21.20
2018-07-14T05:32:45.181Z,21.10
2018-07-14T05:35:20.708Z,21.10
2018-07-14T05:37:49.409Z,21.20
2018-07-14T05:40:18.283Z,21.30
2018-07-14T05:42:47.053Z,21.40
2018-07-14T05:45:16.162Z,21.40
2018-07-14T05:47:45.012Z,21.50
2018-07-14T05:50:13.778Z,21.50
2018-07-14T05:52:42.722Z,21.50
2018-07-14T05:55:11.550Z,21.40
2018-07-14T05:57:40.357Z,21.40
2018-07-14T06:00:09.832Z,21.40
2018-07-14T06:02:38.623Z,21.50
2018-07-14T06:05:07.424Z,21.50
2018-07-14T06:07:38.458Z,21.60
2018-07-14T06:10:07.306Z,21.70
2018-07-14T06:12:36.281Z,21.70
2018-07-14T06:15:05.395Z,21.80
2018-07-14T06:17:34.219Z,21.90
2018-07-14T06:20:03.026Z,21.90
2018-07-14T06:22:31.825Z,22.00
2018-07-14T06:25:00.626Z,21.90
2018-07-14T06:27:42.849Z,22.00
2018-07-14T06:30:12.414Z,22.00
2018-07-14T06:32:41.270Z,22.00
2018-07-14T06:35:10.749Z,22.10
2018-07-14T06:37:39.506Z,22.20
2018-07-14T06:40:08.317Z,22.40
2018-07-14T06:42:37.137Z,22.30
2018-07-14T06:45:06.164Z,22.40
2018-07-14T06:47:35.537Z,22.40
2018-07-14T06:50:04.310Z,22.40
2018-07-14T06:52:34.253Z,22.50
2018-07-14T06:55:03.167Z,22.40
2018-07-14T06:57:32.016Z,22.50
2018-07-14T07:00:01.723Z,22.50
2018-07-14T07:02:30.613Z,22.40
2018-07-14T07:04:59.405Z,22.40
2018-07-14T07:07:29.444Z,22.30
2018-07-14T07:09:58.241Z,22.30
2018-07-14T07:12:27.541Z,22.30
2018-07-14T07:14:58.817Z,22.30
2018-07-14T07:17:27.627Z,22.40
2018-07-14T07:19:56.515Z,22.60
2018-07-14T07:22:25.433Z,22.70
2018-07-14T07:24:54.568Z,22.70
2018-07-14T07:27:23.277Z,22.80
2018-07-14T07:29:52.082Z,22.80
2018-07-14T07:32:21.106Z,22.90
2018-07-14T07:34:50.325Z,23.00
2018-07-14T07:37:19.271Z,23.10
2018-07-14T07:39:49.809Z,23.00
2018-07-14T07:42:19.332Z,23.10
2018-07-14T07:44:48.447Z,23.00
2018-07-14T07:47:17.279Z,23.00
2018-07-14T07:49:47.494Z,23.00
2018-07-14T07:52:16.282Z,23.00
2018-07-14T07:54:45.007Z,23.10
2018-07-14T07:57:14.004Z,23.20
2018-07-14T07:59:44.142Z,23.30
2018-07-14T08:02:12.926Z,23.40
2018-07-14T08:04:41.708Z,23.50
2018-07-14T08:07:11.499Z,23.60
2018-07-14T08:09:40.366Z,23.70
2018-07-14T08:12:15.161Z,23.70
2018-07-14T08:14:44.018Z,23.70
2018-07-14T08:17:12.803Z,23.90
2018-07-14T08:19:41.582Z,24.00
2018-07-14T08:22:12.069Z,24.00
2018-07-14T08:24:40.881Z,24.10
2018-07-14T08:27:09.710Z,24.10
2018-07-14T08:29:38.447Z,24.30
2018-07-14T08:32:07.606Z,24.40
2018-07-14T08:34:36.425Z,24.60
2018-07-14T08:37:05.326Z,24.80
2018-07-14T08:39:34.413Z,24.90
2018-07-14T08:42:03.251Z,24.80
2018-07-14T08:44:32.942Z,24.80
2018-07-14T08:47:01.895Z,24.70
2018-07-14T08:49:30.821Z,24.70
2018-07-14T08:51:59.464Z,24.80
2018-07-14T08:54:28.393Z,24.80
2018-07-14T08:56:57.296Z,24.80
2018-07-14T08:59:26.330Z,24.80
2018-07-14T09:01:56.911Z,24.80
2018-07-14T09:04:25.671Z,24.90
2018-07-14T09:06:57.041Z,25.00
2018-07-14T09:09:25.829Z,25.10
2018-07-14T09:11:54.715Z,25.10
2018-07-14T09:14:24.378Z,25.20
2018-07-14T09:16:53.216Z,25.20
2018-07-14T09:19:22.004Z,25.30
2018-07-14T09:21:52.948Z,25.40
2018-07-14T09:24:21.680Z,25.50
2018-07-14T09:26:50.565Z,25.50
2018-07-14T09:29:19.386Z,25.40
2018-07-14T09:31:48.173Z,25.50
2018-07-14T09:34:17.473Z,25.50
2018-07-14T09:36:46.227Z,25.60
2018-07-14T09:39:14.905Z,25.70
2018-07-14T09:41:43.658Z,25.70
2018-07-14T09:44:12.490Z,25.70
2018-07-14T09:46:41.581Z,25.80
2018-07-14T09:49:10.367Z,25.90
2018-07-14T09:51:39.257Z,25.90
2018-07-14T09:54:08.179Z,25.90
2018-07-14T09:56:36.884Z,25.80
2018-07-14T09:59:05.703Z,25.80
2018-07-14T10:01:35.650Z,25.90
2018-07-14T10:04:04.529Z,25.90
2018-07-14T10:06:33.400Z,25.80
2018-07-14T10:09:02.122Z,25.90
2018-07-14T10:11:30.943Z,26.00
2018-07-14T10:14:00.495Z,26.00
2018-07-14T10:16:29.419Z,25.90
2018-07-14T10:18:58.320Z,25.90
2018-07-14T10:21:27.261Z,25.90
2018-07-14T10:23:56.090Z,26.10
2018-07-14T10:26:24.861Z,26.10
2018-07-14T10:28:53.761Z,26.20
2018-07-14T10:31:23.486Z,26.20
2018-07-14T10:33:52.278Z,26.30
2018-07-14T10:36:21.168Z,26.40
2018-07-14T10:38:50.013Z,26.50
2018-07-14T10:41:18.985Z,26.70
2018-07-14T10:43:47.908Z,26.60
2018-07-14T10:46:17.791Z,26.70
2018-07-14T10:48:46.566Z,26.70
2018-07-14T10:51:15.367Z,26.70
2018-07-14T10:53:44.367Z,26.70
2018-07-14T10:56:13.184Z,26.80
2018-07-14T10:58:42.582Z,27.00
2018-07-14T11:01:11.517Z,27.20
2018-07-14T11:03:40.505Z,27.10
2018-07-14T11:06:09.579Z,27.10
2018-07-14T11:08:38.396Z,27.10
2018-07-14T11:11:07.311Z,27.00
2018-07-14T11:13:36.730Z,26.90
2018-07-14T11:16:05.634Z,26.90
2018-07-14T11:18:34.427Z,27.00
2018-07-14T11:21:03.795Z,27.00
2018-07-14T11:23:32.781Z,27.20
2018-07-14T11:26:01.615Z,27.30
2018-07-14T11:28:34.541Z,27.40
2018-07-14T11:31:03.440Z,27.50
2018-07-14T11:33:32.434Z,27.60
2018-07-14T11:36:01.310Z,27.80
2018-07-14T11:38:30.125Z,27.80
2018-07-14T11:44:30.652Z,27.80
2018-07-14T11:47:00.485Z,27.70
2018-07-14T11:49:30.202Z,27.60
2018-07-14T11:51:59.162Z,27.60
2018-07-14T11:54:28.055Z,27.80
2018-07-14T11:56:56.861Z,27.70
2018-07-14T11:59:25.785Z,27.60
2018-07-14T12:01:54.588Z,27.60
2018-07-14T12:04:23.488Z,27.60
2018-07-14T12:06:52.299Z,27.60
2018-07-14T12:09:21.225Z,27.70
2018-07-14T12:11:51.443Z,27.70
2018-07-14T12:14:20.325Z,27.80
2018-07-14T12:16:49.162Z,27.80
2018-07-14T12:19:18.116Z,27.90
2018-07-14T12:21:46.902Z,28.00
2018-07-14T12:24:15.773Z,28.00
2018-07-14T12:26:44.655Z,28.00
2018-07-14T12:29:13.487Z,27.90
2018-07-14T12:31:42.314Z,28.00
2018-07-14T12:34:11.243Z,27.90
2018-07-14T12:36:40.129Z,28.00
2018-07-14T12:39:08.922Z,27.90
2018-07-14T12:41:37.650Z,27.90
2018-07-14T12:44:06.493Z,28.00
2018-07-14T12:46:35.337Z,28.20
2018-07-14T12:49:04.189Z,28.30
2018-07-14T12:51:32.943Z,28.40
2018-07-14T12:54:01.765Z,28.50
2018-07-14T12:56:30.614Z,28.40
2018-07-14T12:58:59.377Z,28.30
2018-07-14T13:01:28.156Z,28.30
2018-07-14T13:03:56.966Z,28.20
2018-07-14T13:06:26.038Z,28.30
2018-07-14T13:08:54.846Z,28.30
2018-07-14T13:11:23.768Z,28.50
2018-07-14T13:13:52.693Z,28.50
2018-07-14T13:16:21.541Z,28.60
2018-07-14T13:18:50.553Z,28.50
2018-07-14T13:21:19.315Z,28.60
2018-07-14T13:23:51.285Z,28.50
2018-07-14T13:26:20.167Z,28.60
2018-07-14T13:28:48.884Z,28.70
2018-07-14T13:31:17.939Z,28.70
2018-07-14T13:33:46.766Z,28.80
2018-07-14T13:36:15.614Z,28.80
2018-07-14T13:38:51.266Z,28.80
2018-07-14T13:41:13.651Z,28.90
2018-07-14T13:43:43.792Z,29.10
2018-07-14T13:46:14.348Z,29.10
2018-07-14T13:48:43.199Z,29.10
2018-07-14T13:51:11.978Z,29.10
2018-07-14T13:53:40.777Z,29.10
2018-07-14T13:56:09.547Z,29.10
2018-07-14T13:58:39.112Z,29.10
2018-07-14T14:01:08.022Z,29.20
2018-07-14T14:03:36.755Z,29.50
2018-07-14T14:06:06.604Z,29.40
2018-07-14T14:08:35.754Z,29.40
2018-07-14T14:11:04.631Z,29.50
2018-07-14T14:13:33.606Z,29.40
2018-07-14T14:16:02.433Z,29.30
2018-07-14T14:18:31.145Z,29.00
2018-07-14T14:21:00.157Z,29.10
2018-07-14T14:23:28.919Z,29.00
2018-07-14T14:25:58.041Z,29.10
2018-07-14T14:28:26.816Z,29.20
2018-07-14T14:30:55.698Z,29.40
2018-07-14T14:33:24.931Z,29.60
2018-07-14T14:35:53.819Z,29.40
2018-07-14T14:38:22.614Z,29.40
2018-07-14T14:40:51.522Z,29.40
2018-07-14T14:43:20.444Z,29.50
2018-07-14T14:45:50.400Z,29.60
2018-07-14T14:48:19.159Z,29.70
2018-07-14T14:50:48.013Z,29.70
2018-07-14T14:53:16.854Z,29.50
2018-07-14T14:55:45.711Z,29.50
2018-07-14T14:58:14.587Z,29.50
2018-07-14T15:00:43.457Z,29.30
2018-07-14T15:03:12.273Z,29.30
2018-07-14T15:05:41.048Z,29.30
2018-07-14T15:08:09.746Z,29.10
2018-07-14T15:10:38.523Z,29.10
2018-07-14T15:13:07.300Z,29.10
2018-07-14T15:15:37.187Z,29.00
2018-07-14T15:18:06.039Z,28.90
2018-07-14T15:20:34.782Z,29.00
2018-07-14T15:23:03.539Z,28.90
2018-07-14T15:25:33.913Z,29.10
2018-07-14T15:28:02.654Z,29.10
2018-07-14T15:30:31.836Z,29.10
2018-07-14T15:33:00.959Z,29.30
2018-07-14T15:35:29.802Z,29.40
2018-07-14T15:37:58.688Z,29.40
2018-07-14T15:40:27.469Z,29.40
2018-07-14T15:42:56.350Z,29.30
2018-07-14T15:45:25.269Z,29.30
2018-07-14T15:47:54.079Z,29.20
2018-07-14T15:50:22.741Z,29.10
2018-07-14T15:52:51.491Z,28.90
2018-07-14T15:55:20.387Z,28.90
2018-07-14T15:57:49.272Z,28.70
2018-07-14T16:00:18.107Z,28.60
2018-07-14T16:02:47.842Z,28.60
2018-07-14T16:05:16.679Z,28.60
2018-07-14T16:07:45.516Z,28.60
2018-07-14T16:10:14.291Z,28.50
2018-07-14T16:12:43.170Z,28.50
2018-07-14T16:15:12.091Z,28.40
2018-07-14T16:17:40.983Z,28.40
2018-07-14T16:20:10.146Z,28.40
2018-07-14T16:22:38.917Z,28.50
2018-07-14T16:25:07.726Z,28.40
2018-07-14T16:27:36.659Z,28.40
2018-07-14T16:30:06.247Z,28.40
2018-07-14T16:32:35.028Z,28.40
2018-07-14T16:35:04.382Z,28.50
2018-07-14T16:37:33.267Z,28.30
2018-07-14T16:40:02.183Z,28.20
2018-07-14T16:42:31.187Z,28.20
2018-07-14T16:44:59.978Z,28.10
2018-07-14T16:47:28.807Z,28.20
2018-07-14T16:49:57.553Z,28.10
2018-07-14T16:52:26.466Z,28.10
2018-07-14T16:54:55.312Z,28.30
2018-07-14T16:57:24.078Z,28.60
2018-07-14T16:59:53.020Z,29.00
2018-07-14T17:02:21.952Z,29.20
2018-07-14T17:04:51.769Z,29.70
2018-07-14T17:07:20.503Z,30.40
2018-07-14T17:09:49.318Z,31.10
2018-07-14T17:12:18.219Z,31.20
2018-07-14T17:14:47.038Z,30.70
2018-07-14T17:17:15.783Z,29.90
2018-07-14T17:19:44.694Z,29.30
2018-07-14T17:22:13.529Z,29.00
2018-07-14T17:24:42.262Z,28.80
2018-07-14T17:27:11.126Z,28.70
2018-07-14T17:29:39.914Z,28.60
2018-07-14T17:32:08.802Z,28.60
2018-07-14T17:34:37.598Z,28.50
2018-07-14T17:37:06.485Z,28.40
2018-07-14T17:39:35.290Z,28.40
2018-07-14T17:42:04.704Z,28.30
2018-07-14T17:44:33.499Z,28.30
2018-07-14T17:47:02.329Z,28.20
2018-07-14T17:49:32.213Z,28.10
2018-07-14T17:52:01.245Z,28.00
2018-07-14T17:54:29.837Z,28.00
2018-07-14T17:56:58.624Z,27.90
2018-07-14T17:59:27.594Z,27.90
2018-07-14T18:01:56.393Z,27.70
2018-07-14T18:04:26.666Z,27.60
2018-07-14T18:06:55.497Z,27.50
2018-07-14T18:09:24.359Z,27.50
2018-07-14T18:11:55.270Z,27.50
2018-07-14T18:14:24.096Z,27.50
2018-07-14T18:16:52.909Z,27.40
2018-07-14T18:19:21.823Z,27.30
2018-07-14T18:21:50.628Z,27.30
2018-07-14T18:24:19.513Z,27.30
2018-07-14T18:26:48.402Z,27.30
2018-07-14T18:29:17.253Z,27.20
2018-07-14T18:31:46.063Z,27.10
2018-07-14T18:34:14.936Z,27.10
2018-07-14T18:36:43.723Z,27.00
2018-07-14T18:39:12.629Z,27.00
2018-07-14T18:41:41.493Z,27.00
2018-07-14T18:44:10.220Z,26.90
2018-07-14T18:46:39.089Z,26.90
2018-07-14T18:49:08.071Z,26.80
2018-07-14T18:51:36.984Z,26.80
2018-07-14T18:54:05.768Z,26.70
2018-07-14T18:56:34.669Z,26.60
2018-07-14T18:59:03.536Z,26.60
2018-07-14T19:01:32.426Z,26.60
2018-07-14T19:04:01.250Z,26.60
2018-07-14T19:06:30.104Z,26.50
2018-07-14T19:08:59.032Z,26.50
2018-07-14T19:11:29.156Z,26.40
2018-07-14T19:13:58.689Z,26.30
2018-07-14T19:16:27.472Z,26.20
2018-07-14T19:18:56.529Z,26.20
2018-07-14T19:21:25.371Z,26.10
2018-07-14T19:23:54.198Z,26.20
2018-07-14T19:26:23.077Z,26.10
2018-07-14T19:28:51.886Z,26.00
2018-07-14T19:31:20.802Z,25.90
2018-07-14T19:33:49.631Z,25.80
2018-07-14T19:36:18.409Z,25.70
2018-07-14T19:38:47.358Z,25.60
2018-07-14T19:41:16.501Z,25.50
2018-07-14T19:43:45.297Z,25.50
2018-07-14T19:46:14.174Z,25.50
2018-07-14T19:48:42.966Z,25.50
2018-07-14T19:51:11.778Z,25.50
2018-07-14T19:53:40.456Z,25.40
2018-07-14T19:56:09.477Z,25.30
2018-07-14T19:58:38.567Z,25.30
2018-07-14T20:01:07.827Z,25.20
2018-07-14T20:03:36.654Z,25.10
2018-07-14T20:06:09.976Z,24.90
2018-07-14T20:08:38.682Z,24.80
2018-07-14T20:11:07.431Z,24.70
2018-07-14T20:13:36.373Z,24.70
2018-07-14T20:16:06.391Z,24.60
2018-07-14T20:18:36.271Z,24.50
2018-07-14T20:21:05.157Z,24.50
2018-07-14T20:23:34.226Z,24.40
2018-07-14T20:26:03.186Z,24.40
2018-07-14T20:28:31.986Z,24.40
2018-07-14T20:31:00.994Z,24.40
2018-07-14T20:33:30.675Z,24.40
2018-07-14T20:35:59.645Z,24.40
2018-07-14T20:38:28.511Z,24.40
2018-07-14T20:40:57.274Z,24.30
2018-07-14T20:43:26.406Z,24.40
2018-07-14T20:45:55.310Z,24.30
2018-07-14T20:48:24.183Z,24.30
2018-07-14T20:50:53.016Z,24.30
2018-07-14T20:53:22.038Z,24.20
2018-07-14T20:55:51.238Z,24.30
2018-07-14T20:58:20.151Z,24.20
2018-07-14T21:00:49.089Z,24.20
2018-07-14T21:03:17.900Z,24.10
2018-07-14T21:05:46.830Z,24.10
2018-07-14T21:08:17.217Z,24.10
2018-07-14T21:10:47.101Z,24.10
2018-07-14T21:13:17.874Z,24.10
2018-07-14T21:15:48.790Z,24.00
2018-07-14T21:18:17.738Z,24.00
2018-07-14T21:20:47.097Z,24.00
2018-07-14T21:23:15.966Z,24.00
2018-07-14T21:25:45.769Z,24.00
2018-07-14T21:28:14.664Z,24.00
2018-07-14T21:30:43.442Z,24.00
2018-07-14T21:33:12.244Z,24.00
2018-07-14T21:35:41.172Z,24.00
2018-07-14T21:38:09.991Z,24.10
2018-07-14T21:40:38.879Z,24.10
2018-07-14T21:43:07.692Z,24.10
2018-07-14T21:45:36.637Z,24.00
2018-07-14T21:48:07.238Z,24.00
2018-07-14T21:50:36.095Z,24.00
2018-07-14T21:53:04.898Z,23.90
2018-07-14T21:55:33.773Z,23.90
2018-07-14T21:58:02.564Z,23.90
2018-07-14T22:00:36.560Z,23.80
2018-07-14T22:03:06.420Z,23.70
2018-07-14T22:05:35.271Z,23.70
2018-07-14T22:08:04.082Z,23.70
2018-07-14T22:10:32.851Z,23.60
2018-07-14T22:13:01.634Z,23.60
2018-07-14T22:15:30.447Z,23.60
2018-07-14T22:17:59.233Z,23.60
2018-07-14T22:20:28.013Z,23.60
2018-07-14T22:22:57.103Z,23.60
2018-07-14T22:25:25.930Z,23.60
2018-07-14T22:27:54.856Z,23.50
2018-07-14T22:30:23.694Z,23.50
2018-07-14T22:32:52.467Z,23.50
2018-07-14T22:35:21.334Z,23.50
2018-07-14T22:37:50.129Z,23.40
2018-07-14T22:40:18.969Z,23.50
2018-07-14T22:42:47.835Z,23.40
2018-07-14T22:45:16.526Z,23.40
2018-07-14T22:47:45.294Z,23.40
2018-07-14T22:50:14.089Z,23.30
2018-07-14T22:52:42.905Z,23.30
2018-07-14T22:55:11.724Z,23.30
2018-07-14T22:57:41.023Z,23.30
2018-07-14T23:00:09.877Z,23.20
2018-07-14T23:02:41.102Z,23.00
2018-07-14T23:05:10.130Z,22.80
2018-07-14T23:07:40.299Z,22.70
2018-07-14T23:10:11.160Z,22.50
2018-07-14T23:12:40.070Z,22.20
2018-07-14T23:15:10.040Z,22.10
2018-07-14T23:17:38.814Z,21.90
2018-07-14T23:20:07.808Z,21.90
2018-07-14T23:22:36.666Z,21.80
2018-07-14T23:25:05.677Z,21.70
2018-07-14T23:27:36.174Z,21.70
2018-07-14T23:30:06.049Z,21.60
2018-07-14T23:32:35.419Z,21.50
2018-07-14T23:35:04.603Z,21.40
2018-07-14T23:37:33.483Z,21.20
2018-07-14T23:40:02.267Z,21.00
2018-07-14T23:42:32.942Z,20.90
2018-07-14T23:45:01.855Z,20.90
2018-07-14T23:47:30.589Z,20.90
2018-07-14T23:49:59.564Z,21.00
2018-07-14T23:52:28.402Z,20.90
2018-07-14T23:54:57.401Z,20.80
2018-07-14T23:57:26.282Z,20.80
2018-07-14T23:59:55.156Z,20.80
